« Back
NWS Peachtree City, Ga » Text Product » AHN Terminal Aerodrome Forecast


Printer-friendly Version
Current Version              Previous Versions:   1  2  3  4  5  6  7  8  9  

Terminal Aerodrome Forecast

116
FTUS42 KFFC 271122
TAFAHN
TAF
KAHN 271122Z 2712/2812 23003KT P6SM SKC
     FM271600 24006KT P6SM SCT060
     FM280200 25003KT P6SM SCT250=

USA.gov is the U.S. government's official web portal to all federal, state and local government web resources and services.